createdAt,value
2019-01-29T00:01:29.567Z,26.20
2019-01-29T00:04:04.540Z,26.13
2019-01-29T00:06:39.545Z,26.27
2019-01-29T00:09:14.351Z,26.60
2019-01-29T00:11:49.083Z,26.20
2019-01-29T00:14:23.943Z,26.77
2019-01-29T00:16:58.752Z,27.30
2019-01-29T00:19:34.434Z,26.07
2019-01-29T00:22:09.174Z,26.40
2019-01-29T00:24:43.971Z,26.50
2019-01-29T00:27:18.712Z,26.20
2019-01-29T00:29:53.427Z,26.03
2019-01-29T00:32:28.278Z,25.60
2019-01-29T00:35:03.071Z,26.80
2019-01-29T00:37:37.819Z,25.57
2019-01-29T00:40:12.918Z,26.10
2019-01-29T00:42:47.723Z,25.57
2019-01-29T00:45:22.786Z,26.43
2019-01-29T00:47:57.506Z,26.27
2019-01-29T00:50:32.225Z,26.73
2019-01-29T00:53:07.022Z,26.63
2019-01-29T00:55:41.880Z,26.60
2019-01-29T00:58:16.613Z,26.03
2019-01-29T01:00:51.579Z,26.20
2019-01-29T01:03:26.315Z,26.73
2019-01-29T01:06:01.200Z,26.80
2019-01-29T01:08:36.155Z,25.67
2019-01-29T01:11:10.963Z,26.10
2019-01-29T01:13:45.746Z,26.70
2019-01-29T01:16:20.567Z,26.70
2019-01-29T01:18:55.425Z,26.37
2019-01-29T01:21:30.215Z,26.77
2019-01-29T01:24:05.027Z,26.27
2019-01-29T01:26:39.738Z,26.13
2019-01-29T01:29:15.495Z,26.27
2019-01-29T01:31:50.287Z,25.67
2019-01-29T01:34:25.016Z,26.33
2019-01-29T01:36:59.898Z,25.93
2019-01-29T01:39:35.790Z,26.00
2019-01-29T01:42:10.606Z,25.80
2019-01-29T01:44:45.322Z,26.13
2019-01-29T01:47:20.127Z,26.33
2019-01-29T01:49:54.924Z,26.10
2019-01-29T01:52:29.661Z,26.03
2019-01-29T01:55:04.999Z,26.40
2019-01-29T01:57:39.823Z,26.17
2019-01-29T02:00:16.672Z,26.10
2019-01-29T02:02:51.490Z,26.13
2019-01-29T02:05:26.279Z,25.97
2019-01-29T02:08:01.099Z,26.40
2019-01-29T02:10:35.831Z,25.93
2019-01-29T02:13:10.743Z,26.37
2019-01-29T02:15:45.643Z,26.50
2019-01-29T02:18:20.536Z,25.70
2019-01-29T02:20:55.290Z,26.33
2019-01-29T02:23:30.111Z,27.13
2019-01-29T02:26:05.022Z,26.30
2019-01-29T02:28:39.868Z,26.33
2019-01-29T02:31:14.781Z,26.40
2019-01-29T02:33:49.536Z,26.37
2019-01-29T02:36:24.364Z,26.70
2019-01-29T02:38:59.203Z,26.53
2019-01-29T02:41:34.022Z,26.67
2019-01-29T02:44:08.856Z,26.40
2019-01-29T02:46:43.604Z,26.30
2019-01-29T02:49:18.364Z,26.27
2019-01-29T02:51:53.220Z,26.13
2019-01-29T02:54:28.052Z,26.47
2019-01-29T02:57:03.136Z,26.40
2019-01-29T02:59:37.891Z,26.37
2019-01-29T03:02:12.783Z,26.33
2019-01-29T03:04:47.691Z,25.77
2019-01-29T03:07:22.455Z,25.83
2019-01-29T03:09:57.289Z,26.17
2019-01-29T03:12:32.128Z,26.33
2019-01-29T03:15:08.659Z,26.77
2019-01-29T03:17:43.646Z,26.60
2019-01-29T03:20:18.635Z,26.87
2019-01-29T03:22:53.539Z,26.53
2019-01-29T03:25:28.457Z,26.80
2019-01-29T03:28:03.355Z,26.57
2019-01-29T03:30:38.292Z,26.37
2019-01-29T03:33:13.096Z,26.23
2019-01-29T03:35:47.822Z,26.60
2019-01-29T03:38:22.630Z,25.97
2019-01-29T03:40:57.418Z,26.20
2019-01-29T03:43:32.256Z,27.43
2019-01-29T03:46:07.127Z,27.13
2019-01-29T03:48:41.947Z,26.70
2019-01-29T03:51:16.824Z,26.13
2019-01-29T03:53:51.762Z,26.77
2019-01-29T03:56:26.558Z,26.80
2019-01-29T03:59:02.213Z,27.07
2019-01-29T04:01:36.938Z,26.20
2019-01-29T04:04:12.034Z,26.43
2019-01-29T04:06:46.915Z,26.00
2019-01-29T04:09:21.735Z,25.77
2019-01-29T04:11:56.528Z,27.07
2019-01-29T04:14:31.410Z,27.03
2019-01-29T04:17:06.395Z,26.60
2019-01-29T04:19:41.395Z,26.90
2019-01-29T04:22:16.196Z,26.77
2019-01-29T04:24:51.006Z,26.93
2019-01-29T04:27:25.822Z,27.17
2019-01-29T04:30:00.642Z,26.53
2019-01-29T04:32:36.207Z,26.43
2019-01-29T04:35:12.299Z,26.53
2019-01-29T04:37:47.126Z,26.57
2019-01-29T04:40:21.991Z,26.93
2019-01-29T04:42:56.727Z,25.83
2019-01-29T04:45:31.531Z,26.50
2019-01-29T04:48:06.466Z,26.47
2019-01-29T04:50:41.207Z,26.77
2019-01-29T04:53:15.944Z,26.57
2019-01-29T04:55:50.670Z,26.87
2019-01-29T04:58:25.550Z,26.03
2019-01-29T05:01:00.427Z,25.80
2019-01-29T05:03:35.194Z,27.10
2019-01-29T05:06:09.916Z,26.60
2019-01-29T05:08:44.823Z,26.10
2019-01-29T05:11:19.566Z,27.03
2019-01-29T05:13:54.318Z,26.23
2019-01-29T05:16:29.050Z,27.07
2019-01-29T05:19:04.023Z,27.10
2019-01-29T05:21:38.751Z,26.77
2019-01-29T05:24:13.495Z,26.40
2019-01-29T05:26:48.228Z,26.37
2019-01-29T05:29:22.969Z,26.80
2019-01-29T05:31:57.694Z,26.40
2019-01-29T05:34:32.471Z,26.70
2019-01-29T05:37:07.272Z,26.73
2019-01-29T05:39:42.023Z,26.90
2019-01-29T05:42:16.818Z,26.73
2019-01-29T05:44:51.634Z,26.73
2019-01-29T05:47:26.370Z,26.77
2019-01-29T05:50:01.203Z,26.73
2019-01-29T05:52:36.015Z,27.37
2019-01-29T05:55:11.110Z,27.00
2019-01-29T05:57:45.978Z,27.13
2019-01-29T06:00:24.271Z,26.87
2019-01-29T06:02:59.089Z,26.73
2019-01-29T06:05:33.896Z,27.70
2019-01-29T06:08:08.710Z,26.47
2019-01-29T06:10:43.522Z,26.97
2019-01-29T06:13:30.119Z,30.05
2019-01-29T06:16:05.010Z,76.20
2019-01-29T06:18:39.738Z,74.50
2019-01-29T06:21:14.631Z,81.23
2019-01-29T06:23:49.359Z,55.40
2019-01-29T06:26:24.177Z,88.97
2019-01-29T06:28:58.980Z,79.53
2019-01-29T06:31:33.738Z,65.43
2019-01-29T06:34:08.658Z,29.73
2019-01-29T06:36:43.483Z,27.33
2019-01-29T06:39:18.242Z,33.70
2019-01-29T06:41:53.071Z,28.00
2019-01-29T06:44:27.798Z,29.13
2019-01-29T06:47:02.635Z,27.83
2019-01-29T06:49:37.362Z,27.93
2019-01-29T06:52:12.263Z,27.53
2019-01-29T06:54:47.135Z,27.77
2019-01-29T06:57:21.947Z,27.10
2019-01-29T06:59:56.847Z,26.80
2019-01-29T07:02:31.655Z,26.97
2019-01-29T07:05:07.217Z,27.27
2019-01-29T07:07:42.122Z,28.17
2019-01-29T07:10:17.510Z,27.93
2019-01-29T07:12:52.398Z,29.60
2019-01-29T07:15:45.463Z,27.67
2019-01-29T07:18:33.959Z,27.63
2019-01-29T07:21:10.203Z,27.53
2019-01-29T07:23:45.098Z,27.40
2019-01-29T07:26:19.867Z,27.20
2019-01-29T07:28:54.662Z,27.03
2019-01-29T07:31:29.470Z,27.47
2019-01-29T07:34:05.431Z,28.10
2019-01-29T07:36:40.249Z,27.53
2019-01-29T07:39:15.052Z,26.53
2019-01-29T07:41:49.786Z,26.83
2019-01-29T07:44:24.523Z,26.90
2019-01-29T07:46:59.410Z,26.83
2019-01-29T07:49:34.233Z,27.10
2019-01-29T07:52:09.130Z,27.60
2019-01-29T07:54:51.084Z,27.27
2019-01-29T07:57:20.526Z,26.97
2019-01-29T07:59:55.255Z,28.87
2019-01-29T08:02:30.142Z,27.13
2019-01-29T08:05:05.686Z,26.67
2019-01-29T08:07:40.582Z,26.67
2019-01-29T08:10:15.758Z,26.73
2019-01-29T08:12:50.567Z,27.33
2019-01-29T08:15:25.538Z,27.23
2019-01-29T08:18:00.432Z,27.30
2019-01-29T08:20:35.255Z,27.70
2019-01-29T08:23:11.214Z,27.33
2019-01-29T08:25:47.848Z,26.40
2019-01-29T08:28:22.546Z,27.17
2019-01-29T08:30:57.285Z,26.57
2019-01-29T08:33:32.055Z,27.37
2019-01-29T08:36:06.934Z,26.93
2019-01-29T08:38:41.694Z,27.23
2019-01-29T08:41:16.498Z,26.70
2019-01-29T08:43:51.334Z,27.37
2019-01-29T08:46:26.070Z,27.77
2019-01-29T08:49:00.882Z,27.90
2019-01-29T08:51:35.683Z,27.50
2019-01-29T08:54:10.579Z,26.63
2019-01-29T08:56:45.462Z,26.30
2019-01-29T08:59:20.243Z,26.83
2019-01-29T09:01:55.055Z,27.57
2019-01-29T09:04:29.879Z,28.03
2019-01-29T09:07:04.810Z,26.90
2019-01-29T09:09:39.660Z,25.83
2019-01-29T09:12:14.465Z,25.43
2019-01-29T09:14:49.199Z,26.20
2019-01-29T09:17:23.999Z,26.17
2019-01-29T09:20:00.552Z,26.97
2019-01-29T09:22:35.362Z,26.53
2019-01-29T09:25:19.190Z,27.70
2019-01-29T09:27:47.906Z,32.67
2019-01-29T09:30:22.894Z,38.13
2019-01-29T09:32:57.698Z,35.07
2019-01-29T09:35:32.554Z,27.73
2019-01-29T09:38:07.295Z,37.07
2019-01-29T09:40:42.177Z,28.33
2019-01-29T09:43:17.079Z,27.17
2019-01-29T09:45:52.035Z,28.83
2019-01-29T09:48:26.872Z,26.97
2019-01-29T09:51:01.603Z,29.17
2019-01-29T09:53:36.341Z,27.97
2019-01-29T09:56:11.063Z,27.20
2019-01-29T09:58:45.823Z,26.20
2019-01-29T10:01:20.694Z,26.43
2019-01-29T10:03:55.523Z,26.10
2019-01-29T10:06:30.335Z,26.63
2019-01-29T10:09:07.890Z,29.13
2019-01-29T10:11:42.789Z,26.07
2019-01-29T10:14:17.617Z,26.27
2019-01-29T10:16:52.485Z,26.43
2019-01-29T10:19:27.243Z,26.37
2019-01-29T10:22:02.119Z,26.97
2019-01-29T10:24:36.942Z,27.63
2019-01-29T10:27:11.671Z,27.13
2019-01-29T10:29:46.498Z,26.53
2019-01-29T10:32:21.293Z,26.43
2019-01-29T10:34:56.030Z,26.20
2019-01-29T10:37:30.910Z,26.27
2019-01-29T10:40:07.423Z,26.85
2019-01-29T10:42:42.230Z,28.23
2019-01-29T10:45:18.298Z,27.90
2019-01-29T10:47:53.247Z,29.53
2019-01-29T10:50:28.820Z,27.03
2019-01-29T10:53:03.634Z,27.47
2019-01-29T10:55:47.022Z,27.80
2019-01-29T10:58:16.046Z,29.00
2019-01-29T11:00:50.939Z,27.53
2019-01-29T11:03:26.040Z,26.90
2019-01-29T11:06:00.922Z,26.23
2019-01-29T11:08:35.740Z,27.03
2019-01-29T11:11:10.554Z,28.63
2019-01-29T11:13:45.382Z,28.57
2019-01-29T11:34:41.496Z,28.67
2019-01-29T11:37:16.242Z,27.20
2019-01-29T11:39:51.121Z,27.03
2019-01-29T11:42:25.967Z,27.30
2019-01-29T11:45:00.838Z,27.43
2019-01-29T11:47:35.725Z,27.40
2019-01-29T11:50:10.716Z,26.73
2019-01-29T11:52:45.607Z,26.47
2019-01-29T11:55:20.353Z,27.40
2019-01-29T11:57:55.220Z,26.90
2019-01-29T12:00:45.755Z,26.80
2019-01-29T12:03:20.658Z,26.87
2019-01-29T12:05:55.564Z,26.50
2019-01-29T12:08:30.477Z,26.43
2019-01-29T12:11:05.375Z,25.93
2019-01-29T12:13:40.079Z,26.93
2019-01-29T12:16:14.964Z,27.03
2019-01-29T12:18:49.700Z,26.20
2019-01-29T12:21:24.531Z,26.30
2019-01-29T12:23:59.344Z,26.63
2019-01-29T12:26:34.157Z,26.87
2019-01-29T12:29:08.979Z,26.37
2019-01-29T12:31:43.863Z,26.30
2019-01-29T12:34:18.708Z,26.87
2019-01-29T12:36:53.596Z,26.97
2019-01-29T12:39:28.406Z,26.13
2019-01-29T12:42:03.160Z,25.57
2019-01-29T12:44:37.898Z,26.27
2019-01-29T12:47:12.708Z,25.93
2019-01-29T12:49:47.664Z,26.10
2019-01-29T12:52:31.172Z,26.00
2019-01-29T12:55:07.306Z,26.47
2019-01-29T12:57:42.114Z,26.50
2019-01-29T13:00:17.482Z,26.10
2019-01-29T13:02:52.992Z,25.70
2019-01-29T13:05:27.873Z,25.37
2019-01-29T13:08:02.708Z,25.63
2019-01-29T13:10:37.591Z,26.13
2019-01-29T13:13:12.780Z,26.20
2019-01-29T13:15:47.574Z,26.17
2019-01-29T13:18:22.392Z,26.37
2019-01-29T13:20:57.218Z,26.43
2019-01-29T13:23:32.028Z,27.07
2019-01-29T13:26:06.840Z,26.67
2019-01-29T13:28:41.707Z,26.47
2019-01-29T13:31:16.999Z,25.80
2019-01-29T13:33:51.724Z,25.90
2019-01-29T13:36:26.557Z,25.70
2019-01-29T13:39:01.424Z,26.10
2019-01-29T13:41:37.932Z,26.53
2019-01-29T13:44:12.832Z,26.60
2019-01-29T13:46:47.744Z,26.60
2019-01-29T13:49:22.547Z,26.53
2019-01-29T13:51:57.366Z,26.73
2019-01-29T13:54:32.176Z,26.60
2019-01-29T13:57:07.175Z,26.90
2019-01-29T13:59:42.039Z,26.00
2019-01-29T14:02:16.924Z,26.13
2019-01-29T14:04:51.649Z,26.10
2019-01-29T14:07:26.472Z,26.20
2019-01-29T14:10:01.415Z,25.90
2019-01-29T14:12:36.312Z,26.17
2019-01-29T14:15:17.052Z,26.17
2019-01-29T14:17:52.151Z,26.40
2019-01-29T14:20:26.892Z,26.23
2019-01-29T14:23:01.719Z,26.17
2019-01-29T14:25:36.643Z,26.00
2019-01-29T14:28:11.585Z,27.43
2019-01-29T14:30:46.469Z,26.97
2019-01-29T14:33:21.283Z,26.83
2019-01-29T14:35:56.271Z,26.17
2019-01-29T14:39:08.211Z,26.40
2019-01-29T14:41:43.191Z,27.50
2019-01-29T14:44:29.776Z,30.43
2019-01-29T14:47:06.104Z,28.37
2019-01-29T14:49:41.208Z,30.93
2019-01-29T14:52:16.309Z,27.20
2019-01-29T14:54:51.127Z,27.70
2019-01-29T14:57:26.037Z,26.17
2019-01-29T15:00:01.063Z,27.77
2019-01-29T15:02:37.112Z,29.27
2019-01-29T15:05:12.160Z,29.47
2019-01-29T15:07:47.008Z,27.43
2019-01-29T15:10:22.291Z,27.40
2019-01-29T15:12:57.399Z,26.90
2019-01-29T15:15:35.145Z,26.67
2019-01-29T15:18:29.218Z,28.00
2019-01-29T15:21:04.115Z,28.10
2019-01-29T15:23:38.931Z,26.77
2019-01-29T15:26:13.786Z,26.83
2019-01-29T15:28:48.730Z,25.80
2019-01-29T15:31:23.575Z,27.30
2019-01-29T15:33:58.563Z,26.30
2019-01-29T15:36:33.535Z,26.03
2019-01-29T15:39:09.347Z,28.30
2019-01-29T15:41:44.351Z,26.90
2019-01-29T15:44:19.159Z,26.87
2019-01-29T15:46:54.042Z,27.20
2019-01-29T15:49:28.784Z,27.57
2019-01-29T15:52:03.689Z,27.40
2019-01-29T15:54:38.583Z,26.67
2019-01-29T15:57:14.489Z,26.97
2019-01-29T15:59:49.325Z,26.67
2019-01-29T16:02:24.049Z,28.57
2019-01-29T16:04:59.965Z,27.40
2019-01-29T16:07:34.723Z,27.17
2019-01-29T16:10:11.911Z,27.87
2019-01-29T16:12:46.757Z,26.83
2019-01-29T16:15:22.079Z,27.47
2019-01-29T16:17:57.068Z,27.40
2019-01-29T16:20:31.967Z,29.00
2019-01-29T16:23:07.017Z,29.97
2019-01-29T16:25:42.058Z,30.20
2019-01-29T16:28:16.895Z,29.47
2019-01-29T16:30:51.727Z,29.53
2019-01-29T16:33:26.680Z,30.30
2019-01-29T16:36:01.503Z,28.93
2019-01-29T16:38:36.929Z,28.10
2019-01-29T16:41:12.724Z,27.70
2019-01-29T16:43:47.465Z,27.60
2019-01-29T16:46:22.396Z,26.70
2019-01-29T16:48:57.134Z,26.57
2019-01-29T16:51:42.038Z,26.10
2019-01-29T16:54:10.734Z,26.87
2019-01-29T16:56:46.087Z,26.40
2019-01-29T16:59:20.883Z,25.80
2019-01-29T17:01:56.144Z,26.27
2019-01-29T17:04:31.548Z,26.67
2019-01-29T17:07:06.903Z,27.23
2019-01-29T17:09:42.878Z,27.43
2019-01-29T17:12:18.220Z,28.20
2019-01-29T17:14:53.044Z,30.73
2019-01-29T17:17:27.851Z,32.87
2019-01-29T17:20:02.987Z,31.47
2019-01-29T17:22:37.807Z,30.47
2019-01-29T17:25:12.920Z,31.20
2019-01-29T17:27:47.909Z,27.77
2019-01-29T17:30:29.151Z,28.23
2019-01-29T17:33:04.191Z,29.13
2019-01-29T17:35:40.161Z,27.97
2019-01-29T17:38:15.199Z,28.40
2019-01-29T17:40:50.094Z,28.77
2019-01-29T17:43:24.909Z,31.93
2019-01-29T17:45:59.755Z,29.97
2019-01-29T17:48:38.125Z,28.33
2019-01-29T17:51:13.523Z,34.77
2019-01-29T17:53:48.423Z,30.00
2019-01-29T17:56:23.236Z,29.13
2019-01-29T17:58:58.103Z,31.50
2019-01-29T18:01:34.068Z,33.80
2019-01-29T18:04:09.013Z,41.10
2019-01-29T18:06:43.947Z,31.00
2019-01-29T18:09:19.003Z,35.60
2019-01-29T18:11:53.912Z,32.60
2019-01-29T18:14:28.715Z,29.30
2019-01-29T18:20:00.297Z,29.67
2019-01-29T18:22:35.174Z,29.57
2019-01-29T18:25:10.805Z,30.27
2019-01-29T18:27:45.816Z,28.90
2019-01-29T18:30:23.174Z,28.83
2019-01-29T18:32:58.043Z,30.27
2019-01-29T18:35:32.906Z,28.10
2019-01-29T18:38:07.731Z,27.80
2019-01-29T18:40:54.327Z,27.70
2019-01-29T18:43:29.351Z,32.40
2019-01-29T18:46:05.042Z,31.73
2019-01-29T18:48:46.119Z,29.93
2019-01-29T18:51:29.583Z,28.17
2019-01-29T18:54:06.454Z,28.53
2019-01-29T18:56:41.676Z,29.93
2019-01-29T18:59:16.765Z,30.80
2019-01-29T19:01:51.627Z,28.50
2019-01-29T19:04:26.370Z,33.17
2019-01-29T19:07:01.240Z,33.27
2019-01-29T19:09:36.092Z,29.80
2019-01-29T19:12:11.200Z,28.83
2019-01-29T19:14:46.108Z,30.97
2019-01-29T19:17:20.903Z,29.57
2019-01-29T19:19:55.753Z,29.30
2019-01-29T19:22:30.589Z,28.53
2019-01-29T19:25:07.369Z,29.60
2019-01-29T19:27:45.415Z,28.47
2019-01-29T19:30:51.849Z,27.60
2019-01-29T19:36:24.494Z,28.43
2019-01-29T19:38:59.736Z,28.90
2019-01-29T19:41:34.819Z,27.53
2019-01-29T19:44:13.071Z,28.17
2019-01-29T19:46:48.050Z,28.07
2019-01-29T19:49:23.063Z,29.87
2019-01-29T19:51:58.553Z,28.23
2019-01-29T19:54:33.471Z,27.50
2019-01-29T19:57:08.320Z,26.93
2019-01-29T19:59:43.209Z,26.63
2019-01-29T20:02:18.017Z,26.87
2019-01-29T20:04:53.046Z,26.83
2019-01-29T20:07:27.803Z,26.70
2019-01-29T20:10:02.643Z,26.63
2019-01-29T20:12:37.591Z,27.00
2019-01-29T20:15:13.894Z,27.40
2019-01-29T20:17:50.133Z,26.60
2019-01-29T20:20:30.549Z,27.63
2019-01-29T20:23:07.952Z,27.03
2019-01-29T20:25:42.251Z,27.50
2019-01-29T20:28:17.091Z,26.00
2019-01-29T20:30:51.919Z,25.80
2019-01-29T20:33:26.941Z,26.97
2019-01-29T20:36:01.828Z,26.73
2019-01-29T20:38:36.679Z,25.90
2019-01-29T20:41:11.547Z,26.37
2019-01-29T20:43:46.527Z,27.30
2019-01-29T20:46:21.320Z,27.83
2019-01-29T20:48:57.248Z,27.03
2019-01-29T20:51:33.095Z,27.83
2019-01-29T20:54:07.900Z,27.10
2019-01-29T20:56:42.751Z,27.10
2019-01-29T20:59:18.552Z,26.03
2019-01-29T21:01:53.494Z,26.60
2019-01-29T21:04:28.237Z,26.50
2019-01-29T21:07:04.329Z,26.20
2019-01-29T21:09:39.155Z,26.53
2019-01-29T21:12:13.984Z,26.57
2019-01-29T21:14:48.995Z,26.70
2019-01-29T21:17:23.803Z,26.97
2019-01-29T21:19:58.659Z,27.57
2019-01-29T21:22:34.527Z,27.37
2019-01-29T21:25:09.539Z,27.13
2019-01-29T21:27:44.404Z,26.30
2019-01-29T21:30:24.632Z,25.97
2019-01-29T21:32:59.489Z,26.47
2019-01-29T21:35:34.386Z,26.20
2019-01-29T21:38:09.183Z,25.63
2019-01-29T21:40:44.000Z,26.30
2019-01-29T21:43:18.735Z,26.00
2019-01-29T21:45:53.621Z,26.33
2019-01-29T21:48:28.416Z,26.73
2019-01-29T21:51:03.225Z,26.17
2019-01-29T21:53:38.046Z,26.73
2019-01-29T21:56:12.951Z,26.43
2019-01-29T21:58:47.761Z,26.00
2019-01-29T22:01:22.618Z,26.03
2019-01-29T22:03:57.423Z,26.33
2019-01-29T22:06:32.223Z,25.80
2019-01-29T22:09:09.464Z,26.03
2019-01-29T22:11:44.367Z,26.23
2019-01-29T22:14:19.223Z,25.37
2019-01-29T22:16:53.951Z,25.87
2019-01-29T22:19:30.714Z,25.90
2019-01-29T22:22:05.261Z,26.67
2019-01-29T22:24:39.995Z,26.70
2019-01-29T22:27:14.963Z,26.57
2019-01-29T22:29:49.708Z,25.50
2019-01-29T22:32:24.500Z,25.23
2019-01-29T22:35:12.314Z,27.27
2019-01-29T22:37:47.102Z,25.77
2019-01-29T22:40:23.096Z,25.83
2019-01-29T22:42:58.748Z,25.33
2019-01-29T22:45:33.554Z,24.60
2019-01-29T22:48:10.717Z,25.73
2019-01-29T22:50:45.518Z,24.80
2019-01-29T22:53:20.310Z,25.93
2019-01-29T22:55:55.043Z,25.50
2019-01-29T22:58:29.924Z,26.13
2019-01-29T23:01:40.264Z,26.10
2019-01-29T23:04:18.958Z,26.13
2019-01-29T23:07:12.067Z,25.93
2019-01-29T23:09:47.028Z,25.63
2019-01-29T23:12:21.736Z,25.50
2019-01-29T23:17:59.935Z,26.43
2019-01-29T23:20:34.837Z,25.77
2019-01-29T23:23:09.691Z,26.40
2019-01-29T23:25:44.427Z,26.07
2019-01-29T23:28:19.152Z,26.30
2019-01-29T23:30:54.031Z,26.07
2019-01-29T23:37:10.787Z,25.70
2019-01-29T23:39:45.519Z,26.03
2019-01-29T23:42:20.323Z,25.93
2019-01-29T23:44:55.107Z,26.37
2019-01-29T23:47:29.995Z,26.30
2019-01-29T23:50:06.171Z,26.10
2019-01-29T23:52:40.963Z,25.87
2019-01-29T23:55:15.849Z,25.73
2019-01-29T23:57:50.555Z,25.73
